Flight Track Log - Related Links

Times and Time Zones

All times are in EDT time to prevent confusion due to time zone crossing. See the EJA370 flight status page for this flight to view local times or setup timezone preferences in your user account.

Time Position Orientation Groundspeed Altitude Reporting Facility
EDT Latitude Longitude Course Direction KTS MPH feet Rate Location/Type
Sun 03:07:48 PM 38.9333 -77.5000 237° Southwest 185 213 2,800  Level Potomac TRACON
Sun 03:08:48 PM 38.9000 -77.5667 237° Southwest 238 274 3,600 2,050 Climbing Potomac TRACON
Sun 03:09:48 PM 38.8667 -77.6333 237° Southwest 243 280 6,900 2,100 Climbing Potomac TRACON
Sun 03:10:48 PM 38.8000 -77.6667 201° Southwest 253 291 7,800 1,850 Climbing Potomac TRACON
Sun 03:11:48 PM 38.7167 -77.6833 189° South 264 304 10,600 2,629 Climbing Potomac TRACON
Sun 03:12:17 PM 38.6950 -77.6850 183° South 274 315 11,700 3,169 Climbing Washington Center
Sun 03:13:17 PM 38.6175 -77.7042 191° South 279 321 15,300 3,479 Climbing Washington Center
Sun 03:14:16 PM 38.5358 -77.7256 192° South 285 328 18,600 2,924 Climbing Washington Center
Sun 03:15:16 PM 38.4783 -77.7878 220° Southwest 279 321 21,100 2,826 Climbing Washington Center
Sun 03:16:17 PM 38.4244 -77.8814 234° Southwest 278 320 24,300 2,410 Climbing Washington Center
Sun 03:17:18 PM 38.3769 -77.9753 237° Southwest 295 339 26,000 1,109 Climbing Washington Center
Sun 03:18:16 PM 38.3269 -78.0717 237° Southwest 319 367 26,500 508 Climbing Washington Center
Sun 03:19:16 PM 38.2769 -78.1678 236° Southwest 326 375 27,000 1,388 Climbing Washington Center
Sun 03:20:17 PM 38.2247 -78.2667 236° Southwest 331 381 29,300 2,529 Climbing Washington Center
Sun 03:21:17 PM 38.1625 -78.3514 227° Southwest 336 387 32,100 2,430 Climbing Washington Center
Sun 03:22:18 PM 38.0958 -78.4281 222° Southwest 330 380 34,200 1,765 Climbing Washington Center
Sun 03:23:16 PM 38.0294 -78.5100 224° Southwest 330 380 35,600 2,900 Climbing Washington Center
Sun 03:24:18 PM 37.9714 -78.5761 222° Southwest 325 374 40,000 1,180 Climbing Washington Center
Sun 03:25:18 PM 37.9047 -78.6606 225° Southwest 330 380 38,000 -559 Descending Washington Center
Sun 03:26:16 PM 37.8378 -78.7444 225° Southwest 336 387 38,900 1,008 Climbing Washington Center
Sun 03:27:17 PM 37.7767 -78.8417 232° Southwest 349 402 40,000 545 Climbing Washington Center
Sun 03:28:17 PM 37.7072 -78.9464 230° Southwest 357 411 40,000  Level Washington Center
Sun 03:29:18 PM 37.6461 -79.0408 231° Southwest 357 411 40,000  Level Washington Center
Sun 03:30:17 PM 37.5869 -79.1325 231° Southwest 357 411 40,000  Level Washington Center
Sun 03:31:18 PM 37.5322 -79.2189 231° Southwest 357 411 40,000  Level Washington Center
Sun 03:32:18 PM 37.4667 -79.3206 231° Southwest 357 411 40,000  Level Washington Center
Sun 03:33:16 PM 37.4036 -79.3986 225° Southwest 357 411 40,000  Level Washington Center
Sun 03:34:17 PM 37.3444 -79.4922 232° Southwest 357 411 40,000  Level Washington Center
Sun 03:35:18 PM 37.2892 -79.5833 233° Southwest 345 397 40,000  Level Washington Center
Sun 03:36:18 PM 37.2278 -79.6742 230° Southwest 345 397 40,000  Level Washington Center
Sun 03:38:34 PM 37.0850 -79.8889 230° Southwest 378 435 40,000  Level Atlanta Center
Sun 03:39:34 PM 37.0214 -79.9833 230° Southwest 365 420 40,000  Level Atlanta Center
Sun 03:40:34 PM 36.9558 -80.0803 230° Southwest 360 414 40,000  Level Atlanta Center
Sun 03:41:34 PM 36.8942 -80.1717 230° Southwest 360 414 40,000  Level Atlanta Center
Sun 03:42:34 PM 36.8244 -80.2761 230° Southwest 360 414 40,000  Level Atlanta Center
Sun 03:43:34 PM 36.7603 -80.3672 229° Southwest 357 411 40,000  Level Atlanta Center
Sun 03:44:34 PM 36.7008 -80.4658 233° Southwest 362 417 40,000  Level Atlanta Center
Sun 03:45:34 PM 36.6411 -80.5642 233° Southwest 362 417 40,000  Level Atlanta Center
Sun 03:46:34 PM 36.5853 -80.6597 234° Southwest 355 409 40,000  Level Atlanta Center
Sun 03:47:34 PM 36.5294 -80.7575 235° Southwest 350 403 40,000  Level Atlanta Center
Sun 03:48:34 PM 36.4694 -80.8531 232° Southwest 350 403 40,000  Level Atlanta Center
Sun 03:49:34 PM 36.4156 -80.9403 233° Southwest 350 403 40,000  Level Atlanta Center
Sun 03:50:34 PM 36.3594 -81.0378 234° Southwest 350 403 40,000  Level Atlanta Center
Sun 03:51:35 PM 36.3014 -81.1328 233° Southwest 350 403 40,000  Level Atlanta Center
Sun 03:52:34 PM 36.2408 -81.2303 232° Southwest 350 403 40,000  Level Atlanta Center
Sun 03:53:34 PM 36.1825 -81.3247 233° Southwest 350 403 40,000  Level Atlanta Center
Sun 03:54:34 PM 36.1242 -81.4219 233° Southwest 350 403 40,000  Level Atlanta Center
Sun 03:55:34 PM 36.0658 -81.5161 233° Southwest 350 403 40,000  Level Atlanta Center
Sun 03:56:34 PM 36.0072 -81.6131 233° Southwest 350 403 40,000  Level Atlanta Center
Sun 03:57:34 PM 35.9486 -81.7072 232° Southwest 350 403 40,000  Level Atlanta Center
Sun 03:58:34 PM 35.8961 -81.8061 237° Southwest 350 403 40,000 -50 Level Atlanta Center
Sun 03:59:34 PM 35.8503 -81.9200 244° Southwest 345 397 39,900 -550 Descending Atlanta Center
Sun 04:00:34 PM 35.8061 -82.0261 243° Southwest 345 397 38,900 -1,150 Descending Atlanta Center
Sun 04:01:34 PM 35.7619 -82.1297 242° Southwest 345 397 37,600 -950 Descending Atlanta Center
Sun 04:02:34 PM 35.7194 -82.2278 242° Southwest 339 390 37,000 -600 Descending Atlanta Center
Sun 04:03:34 PM 35.6769 -82.3183 240° Southwest 321 369 36,400 -800 Descending Atlanta Center
Sun 04:04:34 PM 35.6156 -82.4064 229° Southwest 333 383 35,400 -700 Descending Atlanta Center
Sun 04:05:34 PM 35.5522 -82.4969 229° Southwest 338 389 35,000 -350 Descending Atlanta Center
Sun 04:06:34 PM 35.4967 -82.5744 229° Southwest 343 395 34,700 -1,150 Descending Atlanta Center
Sun 04:07:34 PM 35.4311 -82.6650 228° Southwest 349 402 32,700 -2,000 Descending Atlanta Center
Sun 04:08:34 PM 35.3631 -82.7578 228° Southwest 354 407 30,700 -2,000 Descending Atlanta Center
Sun 04:09:34 PM 35.2933 -82.8581 230° Southwest 369 425 28,700 -2,050 Descending Atlanta Center
Sun 04:10:34 PM 35.2272 -82.9506 229° Southwest 369 425 26,600 -2,000 Descending Atlanta Center
Sun 04:11:34 PM 35.1633 -83.0378 228° Southwest 363 418 24,700 -1,950 Descending Atlanta Center
Sun 04:12:34 PM 35.0994 -83.1325 231° Southwest 357 411 22,700 -2,000 Descending Atlanta Center
Sun 04:13:34 PM 35.0353 -83.2169 227° Southwest 357 411 20,700 -2,000 Descending Atlanta Center
Sun 04:14:34 PM 34.9711 -83.3061 229° Southwest 357 411 18,700 -1,950 Descending Atlanta Center
Sun 04:15:34 PM 34.9111 -83.3903 229° Southwest 350 403 16,800 -1,950 Descending Atlanta Center
Sun 04:16:34 PM 34.8469 -83.4794 229° Southwest 344 396 14,800 -2,100 Descending Atlanta Center
Sun 04:17:34 PM 34.7847 -83.5633 228° Southwest 327 376 12,600 -1,900 Descending Atlanta Center
Sun 04:18:34 PM 34.7244 -83.6469 229° Southwest 327 376 11,000 -800 Descending Atlanta Center
Sun 04:19:34 PM 34.6578 -83.7181 221° Southwest 322 371 11,000  Level Atlanta Center
Sun 04:20:34 PM 34.5914 -83.7889 221° Southwest 322 371 11,000  Level Atlanta Center
Sun 04:21:34 PM 34.5206 -83.8597 219° Southwest 322 371 11,000  Level Atlanta Center
Sun 04:22:34 PM 34.4536 -83.9281 220° Southwest 329 379 11,000 -600 Level Atlanta Center
Sun 04:23:34 PM 34.3953 -83.9908 222° Southwest 306 352 9,800 -1,300 Descending Atlanta Center
Sun 04:24:34 PM 34.3411 -84.0489 222° Southwest 273 314 8,400 -900 Descending Atlanta Center
Sun 04:25:34 PM 34.2847 -84.0892 211° Southwest 266 306 8,000 -1,000 Descending Atlanta Center
Sun 04:26:34 PM 34.2264 -84.1367 214° Southwest 266 306 6,400 -1,300 Descending Atlanta Center
Sun 04:27:34 PM 34.1908 -84.2069 239° Southwest 247 284 5,400 -1,000 Descending Atlanta Center
Sun 04:28:34 PM 34.1592 -84.2772 241° Southwest 247 284 4,400 -700 Descending Atlanta Center
Sun 04:29:34 PM 34.1278 -84.3425 240° Southwest 242 278 4,000 -282 Descending Atlanta Center
Sun 04:29:59 PM 34.1000 -84.3667 216° Southwest 214 246 4,000 -100 Level Atlanta TRACON
Sun 04:30:34 PM 34.0881 -84.3975 245° Southwest 228 262 3,900 -821 Descending Atlanta Center
Sun 04:31:34 PM 34.0461 -84.4475 225° Southwest 215 247 2,700 -700 Descending Atlanta Center
Sun 04:32:34 PM 34.0189 -84.4950 235° Southwest 196 226 2,500 -450 Descending Atlanta Center
Sun 04:33:34 PM 34.0167 -84.5375 266° West 140 161 1,800 -600 Descending Atlanta Center
Sun 04:34:34 PM 34.0144 -84.5725 266° West 119 137 1,300 -500 Descending Atlanta Center
Sun 04:36:00 PM 34.0000 -84.5833 248° West  Level FlightAware Approximate
Sun 04:43:00 PM 34.0132 -84.5971 248° West  Level Estimated

Login

Don't have an account? Register now (free) for customized features, flight alerts, and more!